sensor_id;sensor_type;location;lat;lon;timestamp;P1;durP1;ratioP1;P2;durP2;ratioP2
73593;SDS011;64760;53.404;23.498;2023-05-28T00:00:51;8.73;;;2.80;;
73593;SDS011;64760;53.404;23.498;2023-05-28T00:03:37;7.90;;;2.88;;
73593;SDS011;64760;53.404;23.498;2023-05-28T00:06:03;9.23;;;3.25;;
73593;SDS011;64760;53.404;23.498;2023-05-28T00:08:31;7.97;;;3.40;;
73593;SDS011;64760;53.404;23.498;2023-05-28T00:10:57;6.85;;;3.17;;
73593;SDS011;64760;53.404;23.498;2023-05-28T00:13:27;6.95;;;3.45;;
73593;SDS011;64760;53.404;23.498;2023-05-28T00:15:53;6.05;;;2.35;;
73593;SDS011;64760;53.404;23.498;2023-05-28T00:18:20;8.25;;;2.95;;
73593;SDS011;64760;53.404;23.498;2023-05-28T00:20:47;6.45;;;2.90;;
73593;SDS011;64760;53.404;23.498;2023-05-28T00:23:16;8.32;;;2.97;;
73593;SDS011;64760;53.404;23.498;2023-05-28T00:25:42;6.38;;;2.67;;
73593;SDS011;64760;53.404;23.498;2023-05-28T00:28:09;8.93;;;3.10;;
73593;SDS011;64760;53.404;23.498;2023-05-28T00:30:35;6.57;;;3.45;;
73593;SDS011;64760;53.404;23.498;2023-05-28T00:33:02;9.00;;;3.88;;
73593;SDS011;64760;53.404;23.498;2023-05-28T00:35:28;8.23;;;3.50;;
73593;SDS011;64760;53.404;23.498;2023-05-28T00:37:54;6.90;;;2.80;;
73593;SDS011;64760;53.404;23.498;2023-05-28T00:40:21;6.38;;;2.58;;
73593;SDS011;64760;53.404;23.498;2023-05-28T00:42:48;7.65;;;3.40;;
73593;SDS011;64760;53.404;23.498;2023-05-28T00:45:14;8.02;;;3.17;;
73593;SDS011;64760;53.404;23.498;2023-05-28T00:47:41;5.85;;;3.17;;
73593;SDS011;64760;53.404;23.498;2023-05-28T00:50:08;7.18;;;3.00;;
73593;SDS011;64760;53.404;23.498;2023-05-28T00:52:35;7.40;;;2.92;;
73593;SDS011;64760;53.404;23.498;2023-05-28T00:55:02;8.52;;;2.65;;
73593;SDS011;64760;53.404;23.498;2023-05-28T00:57:39;6.80;;;3.17;;
73593;SDS011;64760;53.404;23.498;2023-05-28T01:00:06;8.13;;;3.28;;
73593;SDS011;64760;53.404;23.498;2023-05-28T01:02:34;7.53;;;3.78;;
73593;SDS011;64760;53.404;23.498;2023-05-28T01:05:02;9.50;;;3.63;;
73593;SDS011;64760;53.404;23.498;2023-05-28T01:07:28;8.02;;;3.58;;
73593;SDS011;64760;53.404;23.498;2023-05-28T01:09:55;8.23;;;3.47;;
73593;SDS011;64760;53.404;23.498;2023-05-28T01:12:22;5.43;;;2.67;;
73593;SDS011;64760;53.404;23.498;2023-05-28T01:14:53;8.13;;;2.38;;
73593;SDS011;64760;53.404;23.498;2023-05-28T01:17:21;7.03;;;2.95;;
73593;SDS011;64760;53.404;23.498;2023-05-28T01:19:47;7.60;;;2.78;;
73593;SDS011;64760;53.404;23.498;2023-05-28T01:22:19;7.03;;;2.53;;
73593;SDS011;64760;53.404;23.498;2023-05-28T01:24:51;7.70;;;2.78;;
73593;SDS011;64760;53.404;23.498;2023-05-28T01:27:18;13.38;;;2.58;;
73593;SDS011;64760;53.404;23.498;2023-05-28T01:29:45;7.40;;;3.00;;
73593;SDS011;64760;53.404;23.498;2023-05-28T01:32:12;7.63;;;2.72;;
73593;SDS011;64760;53.404;23.498;2023-05-28T01:34:38;7.47;;;2.80;;
73593;SDS011;64760;53.404;23.498;2023-05-28T01:42:34;8.60;;;2.95;;
73593;SDS011;64760;53.404;23.498;2023-05-28T01:45:02;8.25;;;2.85;;
73593;SDS011;64760;53.404;23.498;2023-05-28T01:47:35;9.38;;;2.67;;
73593;SDS011;64760;53.404;23.498;2023-05-28T01:50:01;7.00;;;2.85;;
73593;SDS011;64760;53.404;23.498;2023-05-28T01:52:30;7.10;;;2.33;;
73593;SDS011;64760;53.404;23.498;2023-05-28T01:54:56;5.78;;;2.60;;
73593;SDS011;64760;53.404;23.498;2023-05-28T01:57:22;7.95;;;2.35;;
73593;SDS011;64760;53.404;23.498;2023-05-28T01:59:48;8.63;;;2.85;;
73593;SDS011;64760;53.404;23.498;2023-05-28T02:02:16;6.13;;;2.55;;
73593;SDS011;64760;53.404;23.498;2023-05-28T02:04:42;8.52;;;3.33;;
73593;SDS011;64760;53.404;23.498;2023-05-28T02:07:08;7.30;;;3.25;;
73593;SDS011;64760;53.404;23.498;2023-05-28T02:09:35;7.32;;;3.30;;
73593;SDS011;64760;53.404;23.498;2023-05-28T02:12:01;7.65;;;3.17;;
73593;SDS011;64760;53.404;23.498;2023-05-28T02:14:29;6.47;;;3.17;;
73593;SDS011;64760;53.404;23.498;2023-05-28T02:16:55;7.43;;;3.20;;
73593;SDS011;64760;53.404;23.498;2023-05-28T02:19:22;9.48;;;3.22;;
73593;SDS011;64760;53.404;23.498;2023-05-28T02:21:51;7.32;;;3.30;;
73593;SDS011;64760;53.404;23.498;2023-05-28T02:24:18;6.72;;;2.92;;
73593;SDS011;64760;53.404;23.498;2023-05-28T02:26:44;7.57;;;3.38;;
73593;SDS011;64760;53.404;23.498;2023-05-28T02:29:11;6.55;;;3.03;;
73593;SDS011;64760;53.404;23.498;2023-05-28T02:31:37;6.72;;;3.03;;
73593;SDS011;64760;53.404;23.498;2023-05-28T02:34:04;5.47;;;2.85;;
73593;SDS011;64760;53.404;23.498;2023-05-28T02:36:30;6.68;;;3.05;;
73593;SDS011;64760;53.404;23.498;2023-05-28T02:38:59;5.80;;;2.70;;
73593;SDS011;64760;53.404;23.498;2023-05-28T02:41:26;6.57;;;2.78;;
73593;SDS011;64760;53.404;23.498;2023-05-28T02:43:53;5.45;;;2.30;;
73593;SDS011;64760;53.404;23.498;2023-05-28T02:46:20;7.82;;;3.35;;
73593;SDS011;64760;53.404;23.498;2023-05-28T02:48:47;10.35;;;3.72;;
73593;SDS011;64760;53.404;23.498;2023-05-28T02:51:16;9.35;;;3.15;;
73593;SDS011;64760;53.404;23.498;2023-05-28T02:53:56;6.03;;;2.78;;
73593;SDS011;64760;53.404;23.498;2023-05-28T02:56:24;7.13;;;3.90;;
73593;SDS011;64760;53.404;23.498;2023-05-28T02:58:51;9.93;;;3.58;;
73593;SDS011;64760;53.404;23.498;2023-05-28T03:01:20;8.35;;;3.95;;
73593;SDS011;64760;53.404;23.498;2023-05-28T03:03:46;9.07;;;4.55;;
73593;SDS011;64760;53.404;23.498;2023-05-28T03:06:13;8.93;;;4.63;;
73593;SDS011;64760;53.404;23.498;2023-05-28T03:08:46;12.85;;;4.82;;
73593;SDS011;64760;53.404;23.498;2023-05-28T03:11:13;11.13;;;4.93;;
73593;SDS011;64760;53.404;23.498;2023-05-28T03:13:40;8.77;;;3.67;;
73593;SDS011;64760;53.404;23.498;2023-05-28T03:16:07;8.15;;;3.33;;
73593;SDS011;64760;53.404;23.498;2023-05-28T03:18:35;12.40;;;3.60;;
73593;SDS011;64760;53.404;23.498;2023-05-28T03:21:02;7.03;;;2.88;;
73593;SDS011;64760;53.404;23.498;2023-05-28T03:23:29;7.18;;;2.47;;
73593;SDS011;64760;53.404;23.498;2023-05-28T03:26:28;6.22;;;2.83;;
73593;SDS011;64760;53.404;23.498;2023-05-28T03:28:56;11.10;;;3.20;;
73593;SDS011;64760;53.404;23.498;2023-05-28T03:31:30;8.30;;;2.78;;
73593;SDS011;64760;53.404;23.498;2023-05-28T03:33:57;7.88;;;2.90;;
73593;SDS011;64760;53.404;23.498;2023-05-28T03:36:24;6.53;;;2.88;;
73593;SDS011;64760;53.404;23.498;2023-05-28T03:38:50;6.35;;;2.47;;
73593;SDS011;64760;53.404;23.498;2023-05-28T03:41:17;4.85;;;2.67;;
73593;SDS011;64760;53.404;23.498;2023-05-28T03:43:44;5.53;;;2.67;;
73593;SDS011;64760;53.404;23.498;2023-05-28T03:46:11;5.82;;;2.63;;
73593;SDS011;64760;53.404;23.498;2023-05-28T03:48:37;5.72;;;2.83;;
73593;SDS011;64760;53.404;23.498;2023-05-28T03:51:05;5.93;;;2.60;;
73593;SDS011;64760;53.404;23.498;2023-05-28T03:53:32;4.88;;;2.38;;
73593;SDS011;64760;53.404;23.498;2023-05-28T03:55:58;4.28;;;2.35;;
73593;SDS011;64760;53.404;23.498;2023-05-28T03:58:26;5.13;;;2.78;;
73593;SDS011;64760;53.404;23.498;2023-05-28T04:00:53;6.30;;;2.65;;
73593;SDS011;64760;53.404;23.498;2023-05-28T04:03:20;5.60;;;2.25;;
73593;SDS011;64760;53.404;23.498;2023-05-28T04:05:47;6.40;;;2.70;;
73593;SDS011;64760;53.404;23.498;2023-05-28T04:08:14;6.03;;;2.38;;
73593;SDS011;64760;53.404;23.498;2023-05-28T04:10:41;7.05;;;2.35;;
73593;SDS011;64760;53.404;23.498;2023-05-28T04:13:07;4.88;;;2.28;;
73593;SDS011;64760;53.404;23.498;2023-05-28T04:15:34;3.63;;;1.85;;
73593;SDS011;64760;53.404;23.498;2023-05-28T04:18:01;4.57;;;1.58;;
73593;SDS011;64760;53.404;23.498;2023-05-28T04:20:27;5.28;;;1.42;;
73593;SDS011;64760;53.404;23.498;2023-05-28T04:22:54;3.88;;;1.52;;
73593;SDS011;64760;53.404;23.498;2023-05-28T04:25:20;5.43;;;1.70;;
73593;SDS011;64760;53.404;23.498;2023-05-28T04:27:47;4.10;;;1.40;;
73593;SDS011;64760;53.404;23.498;2023-05-28T04:30:13;3.15;;;1.60;;
73593;SDS011;64760;53.404;23.498;2023-05-28T04:32:39;5.30;;;1.17;;
73593;SDS011;64760;53.404;23.498;2023-05-28T04:35:06;4.15;;;1.83;;
73593;SDS011;64760;53.404;23.498;2023-05-28T04:37:37;3.75;;;1.40;;
73593;SDS011;64760;53.404;23.498;2023-05-28T04:40:06;4.72;;;1.95;;
73593;SDS011;64760;53.404;23.498;2023-05-28T04:42:33;5.18;;;1.40;;
73593;SDS011;64760;53.404;23.498;2023-05-28T04:45:00;3.88;;;1.40;;
73593;SDS011;64760;53.404;23.498;2023-05-28T04:47:30;3.45;;;1.40;;
73593;SDS011;64760;53.404;23.498;2023-05-28T04:49:57;4.85;;;1.33;;
73593;SDS011;64760;53.404;23.498;2023-05-28T04:52:26;4.80;;;1.52;;
73593;SDS011;64760;53.404;23.498;2023-05-28T05:01:31;2.95;;;1.23;;
73593;SDS011;64760;53.404;23.498;2023-05-28T05:04:00;5.03;;;1.70;;
73593;SDS011;64760;53.404;23.498;2023-05-28T05:06:26;3.45;;;1.60;;
73593;SDS011;64760;53.404;23.498;2023-05-28T05:08:53;3.30;;;1.40;;
73593;SDS011;64760;53.404;23.498;2023-05-28T05:11:23;2.85;;;1.30;;
73593;SDS011;64760;53.404;23.498;2023-05-28T05:13:49;3.13;;;1.40;;
73593;SDS011;64760;53.404;23.498;2023-05-28T05:16:16;2.97;;;1.20;;
73593;SDS011;64760;53.404;23.498;2023-05-28T05:18:42;2.50;;;1.20;;
73593;SDS011;64760;53.404;23.498;2023-05-28T05:21:17;4.53;;;1.50;;
73593;SDS011;64760;53.404;23.498;2023-05-28T05:23:43;3.95;;;1.70;;
73593;SDS011;64760;53.404;23.498;2023-05-28T05:26:10;4.35;;;1.38;;
73593;SDS011;64760;53.404;23.498;2023-05-28T05:28:38;3.13;;;1.20;;
73593;SDS011;64760;53.404;23.498;2023-05-28T05:31:06;3.58;;;1.33;;
73593;SDS011;64760;53.404;23.498;2023-05-28T05:33:32;3.15;;;1.50;;
73593;SDS011;64760;53.404;23.498;2023-05-28T05:36:25;2.95;;;1.20;;
73593;SDS011;64760;53.404;23.498;2023-05-28T05:39:01;3.50;;;1.40;;
73593;SDS011;64760;53.404;23.498;2023-05-28T05:41:54;4.38;;;1.40;;
73593;SDS011;64760;53.404;23.498;2023-05-28T05:44:26;5.47;;;1.33;;
73593;SDS011;64760;53.404;23.498;2023-05-28T05:46:53;2.75;;;1.02;;
73593;SDS011;64760;53.404;23.498;2023-05-28T05:49:19;2.72;;;1.20;;
73593;SDS011;64760;53.404;23.498;2023-05-28T05:51:46;2.15;;;0.90;;
73593;SDS011;64760;53.404;23.498;2023-05-28T05:54:12;2.28;;;0.90;;
73593;SDS011;64760;53.404;23.498;2023-05-28T05:56:39;4.30;;;1.17;;
73593;SDS011;64760;53.404;23.498;2023-05-28T05:59:06;1.85;;;1.00;;
73593;SDS011;64760;53.404;23.498;2023-05-28T06:01:32;5.53;;;1.13;;
73593;SDS011;64760;53.404;23.498;2023-05-28T06:03:59;2.90;;;1.20;;
73593;SDS011;64760;53.404;23.498;2023-05-28T06:06:40;4.38;;;1.27;;
73593;SDS011;64760;53.404;23.498;2023-05-28T06:09:26;4.07;;;1.65;;
73593;SDS011;64760;53.404;23.498;2023-05-28T06:11:55;3.63;;;1.27;;
73593;SDS011;64760;53.404;23.498;2023-05-28T06:14:22;2.65;;;1.27;;
73593;SDS011;64760;53.404;23.498;2023-05-28T06:16:49;3.05;;;1.00;;
73593;SDS011;64760;53.404;23.498;2023-05-28T06:19:16;1.42;;;0.77;;
73593;SDS011;64760;53.404;23.498;2023-05-28T06:21:43;4.57;;;1.08;;
73593;SDS011;64760;53.404;23.498;2023-05-28T06:24:09;1.98;;;1.08;;
73593;SDS011;64760;53.404;23.498;2023-05-28T06:26:37;3.60;;;1.02;;
73593;SDS011;64760;53.404;23.498;2023-05-28T06:29:03;2.17;;;0.82;;
73593;SDS011;64760;53.404;23.498;2023-05-28T06:31:32;6.95;;;1.38;;
73593;SDS011;64760;53.404;23.498;2023-05-28T06:33:58;5.40;;;1.25;;
73593;SDS011;64760;53.404;23.498;2023-05-28T06:36:24;2.13;;;0.93;;
73593;SDS011;64760;53.404;23.498;2023-05-28T06:38:50;2.40;;;1.02;;
73593;SDS011;64760;53.404;23.498;2023-05-28T06:41:17;1.50;;;0.90;;
73593;SDS011;64760;53.404;23.498;2023-05-28T06:43:47;3.92;;;1.27;;
73593;SDS011;64760;53.404;23.498;2023-05-28T06:46:22;1.80;;;1.10;;
73593;SDS011;64760;53.404;23.498;2023-05-28T06:48:49;1.85;;;1.00;;
73593;SDS011;64760;53.404;23.498;2023-05-28T06:51:16;4.75;;;1.20;;
73593;SDS011;64760;53.404;23.498;2023-05-28T06:53:42;5.00;;;1.10;;
73593;SDS011;64760;53.404;23.498;2023-05-28T06:56:08;4.03;;;1.27;;
73593;SDS011;64760;53.404;23.498;2023-05-28T06:58:52;2.00;;;1.08;;
73593;SDS011;64760;53.404;23.498;2023-05-28T07:01:56;4.68;;;1.10;;
73593;SDS011;64760;53.404;23.498;2023-05-28T07:04:42;2.75;;;0.95;;
73593;SDS011;64760;53.404;23.498;2023-05-28T07:07:12;3.78;;;1.00;;
73593;SDS011;64760;53.404;23.498;2023-05-28T07:09:39;6.43;;;1.00;;
73593;SDS011;64760;53.404;23.498;2023-05-28T07:12:07;2.55;;;0.77;;
73593;SDS011;64760;53.404;23.498;2023-05-28T07:14:36;4.72;;;1.52;;
73593;SDS011;64760;53.404;23.498;2023-05-28T07:17:02;2.50;;;1.00;;
73593;SDS011;64760;53.404;23.498;2023-05-28T07:19:29;5.20;;;1.15;;
73593;SDS011;64760;53.404;23.498;2023-05-28T07:21:57;1.52;;;0.82;;
73593;SDS011;64760;53.404;23.498;2023-05-28T07:24:24;2.65;;;0.77;;
73593;SDS011;64760;53.404;23.498;2023-05-28T07:26:51;2.28;;;0.90;;
73593;SDS011;64760;53.404;23.498;2023-05-28T07:31:45;2.85;;;1.00;;
73593;SDS011;64760;53.404;23.498;2023-05-28T07:34:11;1.92;;;0.57;;
73593;SDS011;64760;53.404;23.498;2023-05-28T07:36:40;7.05;;;1.98;;
73593;SDS011;64760;53.404;23.498;2023-05-28T07:39:06;1.85;;;0.85;;
73593;SDS011;64760;53.404;23.498;2023-05-28T07:41:35;3.13;;;1.33;;
73593;SDS011;64760;53.404;23.498;2023-05-28T07:44:27;3.45;;;1.08;;
73593;SDS011;64760;53.404;23.498;2023-05-28T07:46:54;1.60;;;1.00;;
73593;SDS011;64760;53.404;23.498;2023-05-28T07:49:46;4.22;;;0.80;;
73593;SDS011;64760;53.404;23.498;2023-05-28T07:52:15;4.82;;;0.70;;
73593;SDS011;64760;53.404;23.498;2023-05-28T07:54:42;3.33;;;0.80;;
73593;SDS011;64760;53.404;23.498;2023-05-28T07:57:10;2.60;;;0.82;;
73593;SDS011;64760;53.404;23.498;2023-05-28T07:59:39;1.77;;;0.70;;
73593;SDS011;64760;53.404;23.498;2023-05-28T08:02:04;2.75;;;0.85;;
73593;SDS011;64760;53.404;23.498;2023-05-28T08:04:31;2.35;;;0.82;;
73593;SDS011;64760;53.404;23.498;2023-05-28T08:06:57;2.58;;;1.05;;
73593;SDS011;64760;53.404;23.498;2023-05-28T08:09:25;1.80;;;0.90;;
73593;SDS011;64760;53.404;23.498;2023-05-28T08:11:53;3.25;;;1.50;;
73593;SDS011;64760;53.404;23.498;2023-05-28T08:14:21;2.10;;;0.70;;
73593;SDS011;64760;53.404;23.498;2023-05-28T08:16:50;3.05;;;0.85;;
73593;SDS011;64760;53.404;23.498;2023-05-28T08:19:23;6.18;;;0.93;;
73593;SDS011;64760;53.404;23.498;2023-05-28T08:21:54;1.30;;;0.75;;
73593;SDS011;64760;53.404;23.498;2023-05-28T08:24:21;4.00;;;1.23;;
73593;SDS011;64760;53.404;23.498;2023-05-28T08:26:47;1.85;;;0.82;;
73593;SDS011;64760;53.404;23.498;2023-05-28T08:29:13;3.20;;;1.00;;
73593;SDS011;64760;53.404;23.498;2023-05-28T08:31:44;2.15;;;1.02;;
73593;SDS011;64760;53.404;23.498;2023-05-28T08:34:34;2.50;;;0.93;;
73593;SDS011;64760;53.404;23.498;2023-05-28T08:37:03;2.28;;;0.80;;
73593;SDS011;64760;53.404;23.498;2023-05-28T08:42:01;3.50;;;1.10;;
73593;SDS011;64760;53.404;23.498;2023-05-28T08:44:31;1.77;;;0.90;;
73593;SDS011;64760;53.404;23.498;2023-05-28T08:46:57;6.35;;;0.98;;
73593;SDS011;64760;53.404;23.498;2023-05-28T08:49:32;3.38;;;0.90;;
73593;SDS011;64760;53.404;23.498;2023-05-28T08:52:04;2.20;;;0.80;;
73593;SDS011;64760;53.404;23.498;2023-05-28T08:54:33;2.15;;;0.68;;
73593;SDS011;64760;53.404;23.498;2023-05-28T08:57:00;2.95;;;0.90;;
73593;SDS011;64760;53.404;23.498;2023-05-28T08:59:29;1.77;;;0.75;;
73593;SDS011;64760;53.404;23.498;2023-05-28T09:01:56;1.50;;;0.70;;
73593;SDS011;64760;53.404;23.498;2023-05-28T09:04:23;1.83;;;1.00;;
73593;SDS011;64760;53.404;23.498;2023-05-28T09:06:49;4.15;;;1.05;;
73593;SDS011;64760;53.404;23.498;2023-05-28T09:09:37;1.77;;;0.77;;
73593;SDS011;64760;53.404;23.498;2023-05-28T09:12:08;2.75;;;0.90;;
73593;SDS011;64760;53.404;23.498;2023-05-28T09:14:39;0.80;;;0.60;;
73593;SDS011;64760;53.404;23.498;2023-05-28T09:17:08;2.85;;;0.90;;
73593;SDS011;64760;53.404;23.498;2023-05-28T09:19:35;1.73;;;0.77;;
73593;SDS011;64760;53.404;23.498;2023-05-28T09:22:02;2.15;;;0.93;;
73593;SDS011;64760;53.404;23.498;2023-05-28T09:25:01;2.22;;;1.02;;
73593;SDS011;64760;53.404;23.498;2023-05-28T09:27:53;2.53;;;1.00;;
73593;SDS011;64760;53.404;23.498;2023-05-28T09:30:20;1.90;;;0.73;;
73593;SDS011;64760;53.404;23.498;2023-05-28T09:32:55;2.67;;;0.77;;
73593;SDS011;64760;53.404;23.498;2023-05-28T09:35:25;2.58;;;0.90;;
73593;SDS011;64760;53.404;23.498;2023-05-28T09:37:58;2.17;;;0.90;;
73593;SDS011;64760;53.404;23.498;2023-05-28T09:40:29;2.22;;;0.90;;
73593;SDS011;64760;53.404;23.498;2023-05-28T09:42:55;2.00;;;1.00;;
73593;SDS011;64760;53.404;23.498;2023-05-28T09:45:25;4.13;;;1.08;;
73593;SDS011;64760;53.404;23.498;2023-05-28T09:47:53;2.13;;;0.90;;
73593;SDS011;64760;53.404;23.498;2023-05-28T09:50:19;1.52;;;0.88;;
73593;SDS011;64760;53.404;23.498;2023-05-28T09:52:46;2.78;;;0.88;;
73593;SDS011;64760;53.404;23.498;2023-05-28T09:55:17;4.07;;;0.70;;
73593;SDS011;64760;53.404;23.498;2023-05-28T09:57:45;2.33;;;0.90;;
73593;SDS011;64760;53.404;23.498;2023-05-28T10:00:50;2.95;;;0.73;;
73593;SDS011;64760;53.404;23.498;2023-05-28T10:03:56;2.85;;;0.93;;
73593;SDS011;64760;53.404;23.498;2023-05-28T10:06:16;1.95;;;0.90;;
73593;SDS011;64760;53.404;23.498;2023-05-28T10:08:46;2.33;;;0.80;;
73593;SDS011;64760;53.404;23.498;2023-05-28T10:11:23;2.92;;;1.13;;
73593;SDS011;64760;53.404;23.498;2023-05-28T10:13:54;3.88;;;1.23;;
73593;SDS011;64760;53.404;23.498;2023-05-28T10:16:20;2.40;;;1.05;;
73593;SDS011;64760;53.404;23.498;2023-05-28T10:18:47;2.40;;;0.77;;
73593;SDS011;64760;53.404;23.498;2023-05-28T10:21:13;6.60;;;2.20;;
73593;SDS011;64760;53.404;23.498;2023-05-28T10:23:40;3.47;;;1.50;;
73593;SDS011;64760;53.404;23.498;2023-05-28T10:26:08;3.60;;;1.00;;
73593;SDS011;64760;53.404;23.498;2023-05-28T10:28:34;2.28;;;1.02;;
73593;SDS011;64760;53.404;23.498;2023-05-28T10:31:05;5.68;;;1.30;;
73593;SDS011;64760;53.404;23.498;2023-05-28T10:33:50;1.80;;;0.90;;
73593;SDS011;64760;53.404;23.498;2023-05-28T10:36:17;4.70;;;1.25;;
73593;SDS011;64760;53.404;23.498;2023-05-28T10:41:19;3.33;;;1.20;;
73593;SDS011;64760;53.404;23.498;2023-05-28T10:43:47;3.58;;;1.13;;
73593;SDS011;64760;53.404;23.498;2023-05-28T10:46:18;3.35;;;1.02;;
73593;SDS011;64760;53.404;23.498;2023-05-28T10:51:50;3.40;;;1.15;;
73593;SDS011;64760;53.404;23.498;2023-05-28T11:02:16;4.57;;;1.10;;
73593;SDS011;64760;53.404;23.498;2023-05-28T11:04:43;2.47;;;1.13;;
73593;SDS011;64760;53.404;23.498;2023-05-28T11:07:10;3.00;;;0.98;;
73593;SDS011;64760;53.404;23.498;2023-05-28T11:09:38;4.60;;;1.20;;
73593;SDS011;64760;53.404;23.498;2023-05-28T11:12:04;2.70;;;0.90;;
73593;SDS011;64760;53.404;23.498;2023-05-28T11:14:35;3.70;;;1.30;;
73593;SDS011;64760;53.404;23.498;2023-05-28T11:17:09;4.45;;;1.30;;
73593;SDS011;64760;53.404;23.498;2023-05-28T11:19:41;4.75;;;1.48;;
73593;SDS011;64760;53.404;23.498;2023-05-28T11:22:12;4.88;;;1.20;;
73593;SDS011;64760;53.404;23.498;2023-05-28T11:27:38;3.33;;;1.10;;
73593;SDS011;64760;53.404;23.498;2023-05-28T11:30:09;2.53;;;1.00;;
73593;SDS011;64760;53.404;23.498;2023-05-28T11:32:38;6.65;;;0.90;;
73593;SDS011;64760;53.404;23.498;2023-05-28T11:35:05;3.92;;;1.38;;
73593;SDS011;64760;53.404;23.498;2023-05-28T11:37:35;4.28;;;1.23;;
73593;SDS011;64760;53.404;23.498;2023-05-28T11:40:03;0.98;;;0.73;;
73593;SDS011;64760;53.404;23.498;2023-05-28T11:42:32;4.90;;;1.00;;
73593;SDS011;64760;53.404;23.498;2023-05-28T11:44:58;4.43;;;1.25;;
73593;SDS011;64760;53.404;23.498;2023-05-28T11:47:25;3.13;;;1.10;;
73593;SDS011;64760;53.404;23.498;2023-05-28T11:49:55;3.75;;;0.80;;
73593;SDS011;64760;53.404;23.498;2023-05-28T11:52:23;3.05;;;0.95;;
73593;SDS011;64760;53.404;23.498;2023-05-28T11:54:57;3.30;;;1.08;;
73593;SDS011;64760;53.404;23.498;2023-05-28T11:57:25;3.25;;;0.90;;
73593;SDS011;64760;53.404;23.498;2023-05-28T12:00:02;2.25;;;1.20;;
73593;SDS011;64760;53.404;23.498;2023-05-28T12:02:46;5.18;;;0.90;;
73593;SDS011;64760;53.404;23.498;2023-05-28T12:05:13;3.58;;;1.10;;
73593;SDS011;64760;53.404;23.498;2023-05-28T12:07:44;7.45;;;2.85;;
73593;SDS011;64760;53.404;23.498;2023-05-28T12:10:12;1.83;;;0.80;;
73593;SDS011;64760;53.404;23.498;2023-05-28T12:12:41;2.35;;;0.80;;
73593;SDS011;64760;53.404;23.498;2023-05-28T12:15:12;2.17;;;0.68;;
73593;SDS011;64760;53.404;23.498;2023-05-28T12:17:41;3.70;;;1.20;;
73593;SDS011;64760;53.404;23.498;2023-05-28T12:22:41;1.55;;;1.08;;
73593;SDS011;64760;53.404;23.498;2023-05-28T12:25:07;3.03;;;1.15;;
73593;SDS011;64760;53.404;23.498;2023-05-28T12:30:01;1.42;;;0.70;;
73593;SDS011;64760;53.404;23.498;2023-05-28T12:32:30;2.35;;;0.90;;
73593;SDS011;64760;53.404;23.498;2023-05-28T12:34:56;4.05;;;1.00;;
73593;SDS011;64760;53.404;23.498;2023-05-28T12:37:22;3.85;;;1.00;;
73593;SDS011;64760;53.404;23.498;2023-05-28T12:39:49;2.22;;;0.95;;
73593;SDS011;64760;53.404;23.498;2023-05-28T12:42:16;4.10;;;1.00;;
73593;SDS011;64760;53.404;23.498;2023-05-28T12:44:43;3.25;;;1.00;;
73593;SDS011;64760;53.404;23.498;2023-05-28T12:47:09;1.80;;;0.90;;
73593;SDS011;64760;53.404;23.498;2023-05-28T12:49:36;1.55;;;0.73;;
73593;SDS011;64760;53.404;23.498;2023-05-28T12:52:02;1.42;;;0.70;;
73593;SDS011;64760;53.404;23.498;2023-05-28T12:54:28;2.97;;;1.30;;
73593;SDS011;64760;53.404;23.498;2023-05-28T12:56:55;2.08;;;0.82;;
73593;SDS011;64760;53.404;23.498;2023-05-28T12:59:24;1.83;;;0.75;;
73593;SDS011;64760;53.404;23.498;2023-05-28T13:01:54;4.43;;;1.00;;
73593;SDS011;64760;53.404;23.498;2023-05-28T13:04:21;2.40;;;1.08;;
73593;SDS011;64760;53.404;23.498;2023-05-28T13:06:48;2.78;;;0.98;;
73593;SDS011;64760;53.404;23.498;2023-05-28T13:09:14;3.10;;;0.90;;
73593;SDS011;64760;53.404;23.498;2023-05-28T13:11:41;3.33;;;0.82;;
73593;SDS011;64760;53.404;23.498;2023-05-28T13:14:08;2.50;;;1.30;;
73593;SDS011;64760;53.404;23.498;2023-05-28T13:16:34;2.97;;;0.80;;
73593;SDS011;64760;53.404;23.498;2023-05-28T13:19:05;3.03;;;1.25;;
73593;SDS011;64760;53.404;23.498;2023-05-28T13:21:32;2.92;;;0.95;;
73593;SDS011;64760;53.404;23.498;2023-05-28T13:24:01;3.13;;;0.95;;
73593;SDS011;64760;53.404;23.498;2023-05-28T13:26:29;1.45;;;0.77;;
73593;SDS011;64760;53.404;23.498;2023-05-28T13:28:57;2.38;;;1.00;;
73593;SDS011;64760;53.404;23.498;2023-05-28T13:31:23;2.60;;;0.93;;
73593;SDS011;64760;53.404;23.498;2023-05-28T13:33:49;2.67;;;0.77;;
73593;SDS011;64760;53.404;23.498;2023-05-28T13:36:15;4.28;;;1.20;;
73593;SDS011;64760;53.404;23.498;2023-05-28T13:38:42;5.97;;;2.30;;
73593;SDS011;64760;53.404;23.498;2023-05-28T13:41:13;2.15;;;1.00;;
73593;SDS011;64760;53.404;23.498;2023-05-28T13:43:39;2.28;;;0.80;;
73593;SDS011;64760;53.404;23.498;2023-05-28T13:46:07;1.98;;;0.90;;
73593;SDS011;64760;53.404;23.498;2023-05-28T13:48:34;3.13;;;1.05;;
73593;SDS011;64760;53.404;23.498;2023-05-28T13:53:27;6.20;;;1.08;;
73593;SDS011;64760;53.404;23.498;2023-05-28T13:55:54;7.07;;;1.40;;
73593;SDS011;64760;53.404;23.498;2023-05-28T14:00:48;2.90;;;1.30;;
73593;SDS011;64760;53.404;23.498;2023-05-28T14:03:14;2.13;;;1.02;;
73593;SDS011;64760;53.404;23.498;2023-05-28T14:05:42;4.25;;;1.10;;
73593;SDS011;64760;53.404;23.498;2023-05-28T14:08:10;2.63;;;1.10;;
73593;SDS011;64760;53.404;23.498;2023-05-28T14:10:37;3.30;;;1.75;;
73593;SDS011;64760;53.404;23.498;2023-05-28T14:13:03;5.93;;;1.42;;
73593;SDS011;64760;53.404;23.498;2023-05-28T14:15:30;4.20;;;1.85;;
73593;SDS011;64760;53.404;23.498;2023-05-28T14:17:56;9.50;;;5.07;;
73593;SDS011;64760;53.404;23.498;2023-05-28T14:20:22;4.35;;;1.05;;
73593;SDS011;64760;53.404;23.498;2023-05-28T14:22:48;5.60;;;2.38;;
73593;SDS011;64760;53.404;23.498;2023-05-28T14:25:15;4.65;;;1.30;;
73593;SDS011;64760;53.404;23.498;2023-05-28T14:27:41;5.05;;;2.35;;
73593;SDS011;64760;53.404;23.498;2023-05-28T14:30:07;4.10;;;1.67;;
73593;SDS011;64760;53.404;23.498;2023-05-28T14:32:33;3.75;;;1.42;;
73593;SDS011;64760;53.404;23.498;2023-05-28T14:35:00;5.68;;;1.40;;
73593;SDS011;64760;53.404;23.498;2023-05-28T14:37:27;2.50;;;1.17;;
73593;SDS011;64760;53.404;23.498;2023-05-28T14:39:53;4.00;;;1.55;;
73593;SDS011;64760;53.404;23.498;2023-05-28T14:42:19;2.72;;;1.20;;
73593;SDS011;64760;53.404;23.498;2023-05-28T14:47:12;4.18;;;1.77;;
73593;SDS011;64760;53.404;23.498;2023-05-28T14:52:20;4.05;;;1.30;;
73593;SDS011;64760;53.404;23.498;2023-05-28T14:54:52;5.20;;;1.40;;
73593;SDS011;64760;53.404;23.498;2023-05-28T14:57:19;5.15;;;1.30;;
73593;SDS011;64760;53.404;23.498;2023-05-28T14:59:47;4.88;;;1.40;;
73593;SDS011;64760;53.404;23.498;2023-05-28T15:02:14;3.35;;;1.30;;
73593;SDS011;64760;53.404;23.498;2023-05-28T15:04:41;2.85;;;1.33;;
73593;SDS011;64760;53.404;23.498;2023-05-28T15:07:08;3.95;;;1.17;;
73593;SDS011;64760;53.404;23.498;2023-05-28T15:09:36;3.17;;;1.38;;
73593;SDS011;64760;53.404;23.498;2023-05-28T15:12:03;8.68;;;1.80;;
73593;SDS011;64760;53.404;23.498;2023-05-28T15:14:32;2.83;;;1.40;;
73593;SDS011;64760;53.404;23.498;2023-05-28T15:16:58;3.88;;;1.33;;
73593;SDS011;64760;53.404;23.498;2023-05-28T15:19:25;4.47;;;1.40;;
73593;SDS011;64760;53.404;23.498;2023-05-28T15:24:18;4.65;;;1.40;;
73593;SDS011;64760;53.404;23.498;2023-05-28T15:26:44;3.70;;;1.52;;
73593;SDS011;64760;53.404;23.498;2023-05-28T15:29:15;4.60;;;1.60;;
73593;SDS011;64760;53.404;23.498;2023-05-28T15:31:46;5.28;;;2.65;;
73593;SDS011;64760;53.404;23.498;2023-05-28T15:34:14;4.45;;;1.50;;